Time;durP1;ratioP1;P1;durP2;ratioP2;P2;SDS_P1;SDS_P2;PMS_P1;PMS_P2;Temp;Humidity;BMP_temperature;BMP_pressure;BME280_temperature;BME280_humidity;BME280_pressure;Samples;Min_cycle;Max_cycle;Signal;HPM_P1;HPM_P2
2022/12/30 00:00:08;;;;;;;;;;;8.20;90.00;;;;;;5037157;28;19917;-77
2022/12/30 00:02:34;;;;;;;;;;;8.20;90.00;;;;;;5025338;28;20375;-77
2022/12/30 00:04:59;;;;;;;;;;;8.20;90.10;;;;;;5039301;28;20024;-75
2022/12/30 00:07:25;;;;;;;;;;;8.20;90.00;;;;;;5057747;28;20062;-78
2022/12/30 00:09:50;;;;;;;;;;;8.20;90.10;;;;;;5039689;28;19917;-77
2022/12/30 00:34:17;;;;;;;;;;;8.10;90.00;;;;;;5038350;28;19927;-77
2022/12/30 00:36:43;;;;;;;;;;;8.10;90.10;;;;;;5039262;28;20533;-75
2022/12/30 00:39:08;;;;;;;;;;;8.00;90.00;;;;;;5039600;28;19924;-77
2022/12/30 00:44:18;;;;;;;;;;;8.00;90.00;;;;;;5039261;28;19983;-77
2022/12/30 00:46:43;;;;;;;;;;;7.90;90.00;;;;;;5036420;28;20375;-77
2022/12/30 00:57:22;;;;;;;;;;;7.70;90.00;;;;;;5033532;28;20649;-77
2022/12/30 00:59:47;;;;;;;;;;;7.70;90.00;;;;;;5029473;28;19925;-77
2022/12/30 01:02:12;;;;;;;;;;;7.60;90.00;;;;;;5036848;28;19921;-75
2022/12/30 01:04:38;;;;;;;;;;;7.60;90.10;;;;;;5032009;28;20044;-76
2022/12/30 01:07:03;;;;;;;;;;;7.60;90.10;;;;;;5019855;28;19921;-75
2022/12/30 01:09:29;;;;;;;;;;;7.50;90.10;;;;;;5038891;28;20338;-75
2022/12/30 01:12:09;;;;;;;;;;;7.50;90.10;;;;;;5040143;28;19940;-76
2022/12/30 01:14:35;;;;;;;;;;;7.40;90.10;;;;;;5040293;28;19941;-75
2022/12/30 01:17:01;;;;;;;;;;;7.40;90.10;;;;;;5040394;28;20333;-75
2022/12/30 01:19:26;;;;;;;;;;;7.40;90.10;;;;;;5058202;28;19925;-77
2022/12/30 01:21:52;;;;;;;;;;;7.30;90.10;;;;;;5045612;28;19986;-77
2022/12/30 01:24:17;;;;;;;;;;;7.30;90.10;;;;;;5042132;28;20016;-77
2022/12/30 01:26:42;;;;;;;;;;;7.20;90.10;;;;;;5043893;28;19920;-76
2022/12/30 01:29:08;;;;;;;;;;;7.20;90.10;;;;;;5044187;28;20286;-76
2022/12/30 01:31:33;;;;;;;;;;;7.20;90.20;;;;;;5026526;28;20012;-77
2022/12/30 01:33:59;;;;;;;;;;;7.10;90.10;;;;;;5042517;28;19917;-77
2022/12/30 01:36:24;;;;;;;;;;;7.10;90.20;;;;;;5039360;28;19917;-78
2022/12/30 01:38:50;;;;;;;;;;;7.10;90.20;;;;;;5041648;28;19988;-78
2022/12/30 01:41:15;;;;;;;;;;;7.00;90.20;;;;;;5045241;28;19928;-78
2022/12/30 01:43:42;;;;;;;;;;;7.00;90.20;;;;;;5044938;28;19921;-77
2022/12/30 01:46:08;;;;;;;;;;;6.90;90.20;;;;;;5039206;28;19921;-77
2022/12/30 01:48:33;;;;;;;;;;;6.90;90.20;;;;;;5039280;28;19917;-78
2022/12/30 01:51:00;;;;;;;;;;;6.80;90.10;;;;;;5043314;28;20689;-77
2022/12/30 01:53:27;;;;;;;;;;;6.70;90.10;;;;;;5041005;28;19921;-76
2022/12/30 01:55:57;;;;;;;;;;;6.70;90.20;;;;;;5042742;28;20405;-76
2022/12/30 01:58:24;;;;;;;;;;;6.60;90.20;;;;;;4996948;28;20513;-77
2022/12/30 02:00:49;;;;;;;;;;;6.60;90.20;;;;;;5035539;28;19936;-75
2022/12/30 02:03:15;;;;;;;;;;;6.60;90.20;;;;;;5039658;28;19943;-77
2022/12/30 02:05:41;;;;;;;;;;;6.60;90.30;;;;;;5033136;28;19928;-77
2022/12/30 02:08:13;;;;;;;;;;;6.50;90.30;;;;;;5024049;28;20012;-77
2022/12/30 02:10:39;;;;;;;;;;;6.50;90.30;;;;;;5056575;28;19921;-77
2022/12/30 02:13:04;;;;;;;;;;;6.50;90.30;;;;;;5043626;28;19921;-77
2022/12/30 02:15:33;;;;;;;;;;;6.50;90.40;;;;;;5038801;28;19921;-75
2022/12/30 02:17:59;;;;;;;;;;;6.40;90.30;;;;;;5039901;28;19920;-75
2022/12/30 02:20:36;;;;;;;;;;;6.40;90.30;;;;;;5039050;28;19921;-77
2022/12/30 02:23:20;;;;;;;;;;;6.40;90.40;;;;;;5039445;28;19921;-77
2022/12/30 02:26:03;;;;;;;;;;;6.40;90.40;;;;;;5038565;28;19927;-77
2022/12/30 02:28:41;;;;;;;;;;;6.40;90.40;;;;;;5039596;28;19925;-77
2022/12/30 02:31:25;;;;;;;;;;;6.30;90.30;;;;;;5055654;28;19928;-75
2022/12/30 02:33:51;;;;;;;;;;;6.30;90.30;;;;;;5056320;28;20023;-76
2022/12/30 02:36:36;;;;;;;;;;;6.20;90.40;;;;;;5039461;28;20115;-77
2022/12/30 02:39:06;;;;;;;;;;;6.20;90.40;;;;;;5039497;28;19974;-77
2022/12/30 02:44:38;;;;;;;;;;;6.10;90.30;;;;;;5017550;28;19948;-77
2022/12/30 02:47:12;;;;;;;;;;;6.00;90.30;;;;;;5040973;28;19924;-77
2022/12/30 02:49:38;;;;;;;;;;;6.00;90.40;;;;;;5040689;28;19983;-76
2022/12/30 02:52:16;;;;;;;;;;;5.90;90.30;;;;;;5039338;28;19944;-77
2022/12/30 02:54:42;;;;;;;;;;;5.90;90.40;;;;;;5041653;28;19921;-77
2022/12/30 02:57:27;;;;;;;;;;;5.80;90.40;;;;;;5042187;28;19974;-77
2022/12/30 03:05:24;;;;;;;;;;;5.60;90.40;;;;;;5041131;28;19974;-78
2022/12/30 03:07:53;;;;;;;;;;;5.60;90.50;;;;;;5053662;28;20811;-77
2022/12/30 03:13:10;;;;;;;;;;;5.60;90.50;;;;;;5043001;28;19934;-77
2022/12/30 03:15:40;;;;;;;;;;;5.50;90.50;;;;;;5039996;28;19921;-77
2022/12/30 03:18:05;;;;;;;;;;;5.50;90.50;;;;;;5042932;28;19917;-78
2022/12/30 03:20:30;;;;;;;;;;;5.50;90.50;;;;;;5044495;28;19923;-76
2022/12/30 03:28:25;;;;;;;;;;;5.40;90.60;;;;;;5039165;28;19942;-77
2022/12/30 03:30:53;;;;;;;;;;;5.30;90.60;;;;;;5041525;28;19921;-77
2022/12/30 03:33:18;;;;;;;;;;;5.30;90.60;;;;;;5021937;28;20380;-77
2022/12/30 03:35:48;;;;;;;;;;;5.30;90.60;;;;;;5054321;28;21319;-77
2022/12/30 03:38:13;;;;;;;;;;;5.30;90.60;;;;;;5038582;28;19935;-77
2022/12/30 03:40:39;;;;;;;;;;;5.30;90.60;;;;;;5038086;28;19921;-77
2022/12/30 03:43:04;;;;;;;;;;;5.30;90.60;;;;;;5039406;28;19928;-77
2022/12/30 03:45:30;;;;;;;;;;;5.20;90.60;;;;;;5022167;28;20056;-75
2022/12/30 03:47:55;;;;;;;;;;;5.20;90.70;;;;;;5023007;28;20295;-77
2022/12/30 03:50:21;;;;;;;;;;;5.20;90.60;;;;;;5039380;28;19920;-77
2022/12/30 03:52:46;;;;;;;;;;;5.20;90.70;;;;;;5039843;28;20578;-77
2022/12/30 03:55:12;;;;;;;;;;;5.20;90.60;;;;;;5040569;28;19928;-75
2022/12/30 03:57:37;;;;;;;;;;;5.20;90.60;;;;;;5040440;28;19917;-77
2022/12/30 04:00:03;;;;;;;;;;;5.10;90.60;;;;;;5037682;28;20000;-77
2022/12/30 04:02:29;;;;;;;;;;;5.10;90.60;;;;;;5038146;28;19944;-77
2022/12/30 04:04:54;;;;;;;;;;;5.10;90.60;;;;;;5053280;28;19921;-75
2022/12/30 04:07:20;;;;;;;;;;;5.10;90.60;;;;;;5036860;28;21861;-77
2022/12/30 04:09:45;;;;;;;;;;;5.00;90.70;;;;;;5037768;28;19921;-77
2022/12/30 04:12:11;;;;;;;;;;;5.00;90.80;;;;;;5040753;28;20447;-77
2022/12/30 04:14:36;;;;;;;;;;;5.00;90.70;;;;;;5034852;28;19917;-76
2022/12/30 04:17:02;;;;;;;;;;;5.00;90.70;;;;;;5021158;28;19932;-77
2022/12/30 04:19:27;;;;;;;;;;;5.00;90.70;;;;;;5053739;28;19984;-77
2022/12/30 04:21:53;;;;;;;;;;;4.90;90.60;;;;;;5037234;28;19971;-77
2022/12/30 04:24:18;;;;;;;;;;;4.90;90.60;;;;;;5022153;28;19924;-77
2022/12/30 04:26:44;;;;;;;;;;;4.80;90.70;;;;;;5034547;28;20645;-76
2022/12/30 04:29:09;;;;;;;;;;;4.80;90.70;;;;;;5039450;28;19967;-76
2022/12/30 04:31:34;;;;;;;;;;;4.80;90.70;;;;;;5052783;28;19920;-76
2022/12/30 04:34:00;;;;;;;;;;;4.80;90.70;;;;;;5036595;28;19921;-76
2022/12/30 04:36:25;;;;;;;;;;;4.70;90.70;;;;;;5035983;28;20375;-74
2022/12/30 04:38:51;;;;;;;;;;;4.70;90.70;;;;;;5035416;28;19978;-76
2022/12/30 04:41:19;;;;;;;;;;;4.70;90.70;;;;;;5039338;28;19921;-76
2022/12/30 04:43:46;;;;;;;;;;;4.70;90.70;;;;;;5037677;28;19947;-76
2022/12/30 04:46:12;;;;;;;;;;;4.70;90.70;;;;;;5037271;28;19968;-76
2022/12/30 04:48:37;;;;;;;;;;;4.70;90.70;;;;;;5037691;28;20551;-75
2022/12/30 04:51:03;;;;;;;;;;;4.60;90.70;;;;;;5038094;28;19960;-76
2022/12/30 04:53:28;;;;;;;;;;;4.60;90.70;;;;;;5036940;28;20375;-75
2022/12/30 04:55:54;;;;;;;;;;;4.60;90.70;;;;;;5035624;28;19964;-77
2022/12/30 04:58:19;;;;;;;;;;;4.50;90.80;;;;;;5051648;28;19920;-75
2022/12/30 05:00:46;;;;;;;;;;;4.50;90.80;;;;;;5052567;28;20299;-76
2022/12/30 05:03:11;;;;;;;;;;;4.50;90.80;;;;;;5033420;28;19932;-76
2022/12/30 05:05:36;;;;;;;;;;;4.40;90.80;;;;;;5035340;28;19917;-76
2022/12/30 05:08:02;;;;;;;;;;;4.40;90.80;;;;;;5050964;28;20016;-76
2022/12/30 05:10:28;;;;;;;;;;;4.40;90.80;;;;;;5036422;28;19921;-76
2022/12/30 05:12:53;;;;;;;;;;;4.40;90.90;;;;;;5037584;28;20319;-76
2022/12/30 05:15:18;;;;;;;;;;;4.40;90.90;;;;;;5036766;28;19916;-76
2022/12/30 05:17:44;;;;;;;;;;;4.40;90.90;;;;;;5051377;28;19970;-76
2022/12/30 05:20:09;;;;;;;;;;;4.40;90.90;;;;;;5038029;28;20472;-76
2022/12/30 05:22:35;;;;;;;;;;;4.40;90.90;;;;;;5037822;28;19917;-76
2022/12/30 05:27:44;;;;;;;;;;;4.40;90.90;;;;;;5048833;28;19924;-76
2022/12/30 05:30:10;;;;;;;;;;;4.30;90.80;;;;;;5040032;28;19917;-76
2022/12/30 05:32:35;;;;;;;;;;;4.30;90.90;;;;;;5038044;28;19962;-77
2022/12/30 05:35:01;;;;;;;;;;;4.30;90.90;;;;;;5040147;28;19925;-77
2022/12/30 05:37:26;;;;;;;;;;;4.30;90.90;;;;;;5051928;28;19917;-75
2022/12/30 05:39:52;;;;;;;;;;;4.30;90.90;;;;;;5036068;28;20314;-76
2022/12/30 05:42:17;;;;;;;;;;;4.30;90.90;;;;;;5036669;28;19932;-74
2022/12/30 05:44:43;;;;;;;;;;;4.20;90.90;;;;;;5038896;28;19947;-76
2022/12/30 05:47:08;;;;;;;;;;;4.20;90.90;;;;;;5035312;28;19924;-76
2022/12/30 05:49:33;;;;;;;;;;;4.20;90.90;;;;;;5033889;28;20012;-76
2022/12/30 05:51:59;;;;;;;;;;;4.20;90.90;;;;;;5038236;28;19981;-77
2022/12/30 05:54:24;;;;;;;;;;;4.20;90.90;;;;;;5037799;28;19921;-77
2022/12/30 05:56:50;;;;;;;;;;;4.20;90.90;;;;;;5041713;28;20446;-76
2022/12/30 05:59:15;;;;;;;;;;;4.10;90.90;;;;;;5055360;28;20012;-76
2022/12/30 06:01:41;;;;;;;;;;;4.10;90.90;;;;;;5039057;28;19924;-76
2022/12/30 06:04:06;;;;;;;;;;;4.10;90.90;;;;;;5039908;28;19928;-76
2022/12/30 06:06:32;;;;;;;;;;;4.10;90.90;;;;;;5040726;28;19921;-75
2022/12/30 06:08:57;;;;;;;;;;;4.10;90.90;;;;;;5039470;28;20455;-76
2022/12/30 06:11:22;;;;;;;;;;;4.10;90.90;;;;;;5038860;28;19921;-76
2022/12/30 06:13:48;;;;;;;;;;;4.10;90.90;;;;;;5040830;28;19974;-77
2022/12/30 06:16:13;;;;;;;;;;;4.10;91.00;;;;;;5040377;28;20307;-76
2022/12/30 06:18:39;;;;;;;;;;;4.10;90.90;;;;;;5021143;28;19936;-76
2022/12/30 06:21:04;;;;;;;;;;;4.10;91.00;;;;;;5041051;28;19920;-76
2022/12/30 06:23:30;;;;;;;;;;;4.00;91.30;;;;;;5053174;28;19957;-74
2022/12/30 06:25:56;;;;;;;;;;;4.00;90.90;;;;;;5040720;28;19928;-76
2022/12/30 06:28:21;;;;;;;;;;;4.00;90.90;;;;;;5051501;28;19925;-76
2022/12/30 06:30:47;;;;;;;;;;;4.00;90.90;;;;;;5039657;28;19916;-76
2022/12/30 06:33:13;;;;;;;;;;;4.00;90.90;;;;;;5039177;28;20395;-76
2022/12/30 06:35:38;;;;;;;;;;;4.00;90.90;;;;;;5040196;28;19925;-76
2022/12/30 06:38:04;;;;;;;;;;;4.00;90.90;;;;;;5035755;28;19921;-76
2022/12/30 06:40:29;;;;;;;;;;;3.90;90.90;;;;;;5037014;28;19916;-75
2022/12/30 06:42:55;;;;;;;;;;;3.90;90.90;;;;;;5039625;28;19988;-76
2022/12/30 06:45:20;;;;;;;;;;;3.90;91.00;;;;;;5052168;28;19979;-76
2022/12/30 06:47:46;;;;;;;;;;;3.90;91.00;;;;;;5038143;28;19928;-77
2022/12/30 06:50:11;;;;;;;;;;;3.90;91.00;;;;;;5054338;28;19920;-77
2022/12/30 06:52:36;;;;;;;;;;;3.90;91.00;;;;;;5035637;28;19921;-76
2022/12/30 06:55:02;;;;;;;;;;;3.90;91.00;;;;;;5040466;28;19931;-76
2022/12/30 06:57:28;;;;;;;;;;;3.80;90.90;;;;;;5051809;28;19961;-77
2022/12/30 06:59:53;;;;;;;;;;;3.80;90.90;;;;;;5037943;28;19964;-76
2022/12/30 07:02:18;;;;;;;;;;;3.80;91.10;;;;;;5039364;28;20456;-77
2022/12/30 07:04:44;;;;;;;;;;;3.80;90.90;;;;;;5033277;28;19928;-74
2022/12/30 07:07:09;;;;;;;;;;;3.70;91.00;;;;;;5037351;28;19995;-76
2022/12/30 07:09:35;;;;;;;;;;;3.80;91.00;;;;;;5053101;28;19920;-76
2022/12/30 07:12:00;;;;;;;;;;;3.70;91.00;;;;;;5040068;28;19929;-76
2022/12/30 07:14:26;;;;;;;;;;;3.70;91.00;;;;;;5053812;28;19921;-77
2022/12/30 07:16:51;;;;;;;;;;;3.70;91.00;;;;;;5033913;28;19925;-75
2022/12/30 07:19:17;;;;;;;;;;;3.70;91.00;;;;;;5037165;28;20628;-76
2022/12/30 07:21:42;;;;;;;;;;;3.70;91.00;;;;;;5038263;28;19928;-74
2022/12/30 07:24:08;;;;;;;;;;;3.60;91.00;;;;;;5040572;28;20329;-77
2022/12/30 07:26:33;;;;;;;;;;;3.60;91.00;;;;;;5035972;28;19962;-76
2022/12/30 07:28:59;;;;;;;;;;;3.60;91.00;;;;;;5035531;28;19924;-76
2022/12/30 07:31:24;;;;;;;;;;;3.60;91.00;;;;;;5050470;28;20737;-75
2022/12/30 07:33:50;;;;;;;;;;;3.50;90.90;;;;;;5038882;28;19924;-76
2022/12/30 07:36:15;;;;;;;;;;;3.50;91.00;;;;;;5055415;28;19921;-75
2022/12/30 07:38:40;;;;;;;;;;;3.50;91.00;;;;;;5034993;28;19955;-76
2022/12/30 07:41:06;;;;;;;;;;;3.40;91.00;;;;;;5036832;28;20597;-76
2022/12/30 07:43:31;;;;;;;;;;;3.40;91.00;;;;;;5033323;28;19921;-70
2022/12/30 07:45:57;;;;;;;;;;;3.40;91.00;;;;;;5036798;28;19972;-71
2022/12/30 07:48:22;;;;;;;;;;;3.40;91.00;;;;;;5030790;28;19940;-76
2022/12/30 07:50:48;;;;;;;;;;;3.40;91.00;;;;;;5038803;28;19917;-77
2022/12/30 07:53:13;;;;;;;;;;;3.40;91.00;;;;;;5037038;28;19942;-77
2022/12/30 07:55:39;;;;;;;;;;;3.40;91.10;;;;;;5022977;28;19924;-77
2022/12/30 07:58:05;;;;;;;;;;;3.40;91.10;;;;;;5038372;28;20411;-77
2022/12/30 08:00:31;;;;;;;;;;;3.40;91.10;;;;;;5020085;28;19917;-77
2022/12/30 08:02:56;;;;;;;;;;;3.40;91.10;;;;;;5035470;28;20008;-76
2022/12/30 08:05:21;;;;;;;;;;;3.40;91.10;;;;;;5052813;28;19924;-77
2022/12/30 08:07:47;;;;;;;;;;;3.40;91.10;;;;;;5036100;28;19979;-75
2022/12/30 08:10:12;;;;;;;;;;;3.40;91.10;;;;;;5039656;28;19920;-77
2022/12/30 08:12:38;;;;;;;;;;;3.40;91.10;;;;;;5052996;28;19921;-77
2022/12/30 08:15:03;;;;;;;;;;;3.40;91.10;;;;;;5039765;28;20497;-77
2022/12/30 08:17:29;;;;;;;;;;;3.40;91.10;;;;;;5038605;28;19924;-76
2022/12/30 08:19:57;;;;;;;;;;;3.50;91.10;;;;;;5021175;28;21455;-76
2022/12/30 08:22:22;;;;;;;;;;;3.40;91.10;;;;;;5053692;28;20268;-77
2022/12/30 08:24:47;;;;;;;;;;;3.50;91.10;;;;;;5021133;28;19920;-76
2022/12/30 08:27:13;;;;;;;;;;;3.50;91.10;;;;;;5038732;28;19925;-77
2022/12/30 08:29:38;;;;;;;;;;;3.50;91.10;;;;;;5030119;28;19925;-76
2022/12/30 08:32:04;;;;;;;;;;;3.50;91.10;;;;;;5052434;28;19927;-76
2022/12/30 08:34:29;;;;;;;;;;;3.50;91.10;;;;;;5036892;28;19932;-74
2022/12/30 08:36:55;;;;;;;;;;;3.50;91.20;;;;;;5038750;28;20437;-76
2022/12/30 08:39:21;;;;;;;;;;;3.50;91.10;;;;;;5051801;28;19979;-73
2022/12/30 08:41:46;;;;;;;;;;;3.60;91.20;;;;;;5050736;28;19921;-76
2022/12/30 08:44:12;;;;;;;;;;;3.60;91.20;;;;;;5036303;28;20138;-76
2022/12/30 08:46:37;;;;;;;;;;;3.60;91.20;;;;;;5037362;28;19927;-76
2022/12/30 08:49:03;;;;;;;;;;;3.70;91.20;;;;;;5038943;28;19921;-76
2022/12/30 08:51:29;;;;;;;;;;;3.70;91.20;;;;;;5047258;28;19918;-76
2022/12/30 08:53:54;;;;;;;;;;;3.70;91.10;;;;;;5033522;28;19928;-76
2022/12/30 08:56:21;;;;;;;;;;;3.70;91.20;;;;;;5037627;28;19931;-76
2022/12/30 08:58:46;;;;;;;;;;;3.70;91.20;;;;;;5034141;28;19928;-76
2022/12/30 09:01:21;;;;;;;;;;;3.80;91.20;;;;;;5037871;28;19920;-77
2022/12/30 09:03:47;;;;;;;;;;;3.90;91.20;;;;;;5035281;28;19929;-76
2022/12/30 09:06:13;;;;;;;;;;;4.00;91.20;;;;;;5042689;28;19920;-76
2022/12/30 09:08:38;;;;;;;;;;;4.10;91.20;;;;;;5041052;28;20300;-76
2022/12/30 09:11:05;;;;;;;;;;;4.20;91.20;;;;;;5037114;28;19928;-77
2022/12/30 09:13:30;;;;;;;;;;;4.20;91.30;;;;;;5038095;28;20390;-74
2022/12/30 09:15:56;;;;;;;;;;;4.30;91.20;;;;;;5038485;28;19927;-76
2022/12/30 09:18:22;;;;;;;;;;;4.40;91.20;;;;;;5037847;28;19971;-77
2022/12/30 09:20:47;;;;;;;;;;;4.60;91.30;;;;;;5036557;28;20436;-77
2022/12/30 09:23:12;;;;;;;;;;;4.70;91.20;;;;;;5038386;28;19932;-77
2022/12/30 09:25:38;;;;;;;;;;;4.90;91.20;;;;;;5034824;28;19920;-76
2022/12/30 09:28:03;;;;;;;;;;;4.90;91.10;;;;;;5034650;28;19921;-72
2022/12/30 09:30:29;;;;;;;;;;;5.00;91.10;;;;;;5038821;28;19920;-77
2022/12/30 09:32:54;;;;;;;;;;;5.10;91.10;;;;;;5040528;28;19927;-76
2022/12/30 09:35:20;;;;;;;;;;;5.20;91.00;;;;;;5042882;28;19940;-77
2022/12/30 09:37:45;;;;;;;;;;;5.30;91.10;;;;;;5041157;28;19970;-77
2022/12/30 09:40:13;;;;;;;;;;;5.40;91.10;;;;;;5042237;28;20681;-78
2022/12/30 09:45:26;;;;;;;;;;;5.60;91.00;;;;;;5042829;28;19950;-77
2022/12/30 09:47:52;;;;;;;;;;;5.80;91.00;;;;;;5038345;28;19931;-76
2022/12/30 09:50:22;;;;;;;;;;;5.90;91.00;;;;;;5025666;28;19917;-77
2022/12/30 09:52:47;;;;;;;;;;;6.00;90.90;;;;;;5025004;28;20047;-77
2022/12/30 09:55:17;;;;;;;;;;;6.10;90.90;;;;;;5042171;28;19951;-77
2022/12/30 09:57:42;;;;;;;;;;;6.20;90.90;;;;;;5038953;28;19964;-75
2022/12/30 10:00:11;;;;;;;;;;;6.30;90.90;;;;;;5056128;28;19956;-76
2022/12/30 10:02:57;;;;;;;;;;;6.40;90.90;;;;;;5042690;28;19924;-77
2022/12/30 10:05:28;;;;;;;;;;;6.50;90.80;;;;;;5040334;28;19921;-77
2022/12/30 10:07:56;;;;;;;;;;;6.60;90.80;;;;;;5041034;28;19938;-77
2022/12/30 10:10:32;;;;;;;;;;;6.70;90.80;;;;;;5041956;28;19924;-77
2022/12/30 10:13:08;;;;;;;;;;;6.90;90.80;;;;;;5042175;28;19927;-76
2022/12/30 10:15:42;;;;;;;;;;;7.00;90.70;;;;;;5027616;28;19921;-76
2022/12/30 10:18:14;;;;;;;;;;;7.10;90.70;;;;;;5041230;28;20074;-76
2022/12/30 10:20:39;;;;;;;;;;;7.20;90.70;;;;;;5038247;28;19931;-77
2022/12/30 10:23:20;;;;;;;;;;;7.30;90.60;;;;;;5043036;28;19921;-76
2022/12/30 10:25:48;;;;;;;;;;;7.40;90.60;;;;;;5039783;28;20743;-77
2022/12/30 10:28:14;;;;;;;;;;;7.50;90.60;;;;;;5038880;28;19985;-77
2022/12/30 10:30:40;;;;;;;;;;;7.60;90.50;;;;;;5045384;28;20358;-77
2022/12/30 10:33:06;;;;;;;;;;;7.60;90.50;;;;;;5040788;28;19921;-77
2022/12/30 10:35:32;;;;;;;;;;;7.70;90.50;;;;;;5054865;28;19932;-75
2022/12/30 10:37:59;;;;;;;;;;;7.80;90.50;;;;;;5040828;28;21331;-76
2022/12/30 10:40:29;;;;;;;;;;;7.90;90.50;;;;;;5039806;28;19935;-76
2022/12/30 10:43:10;;;;;;;;;;;8.10;90.50;;;;;;5042443;28;20000;-77
2022/12/30 10:45:50;;;;;;;;;;;8.20;90.50;;;;;;5034381;28;19960;-72
2022/12/30 10:48:20;;;;;;;;;;;8.30;90.40;;;;;;5032368;28;19921;-72
2022/12/30 10:50:46;;;;;;;;;;;8.40;90.30;;;;;;5033133;28;20394;-75
2022/12/30 10:53:17;;;;;;;;;;;8.50;90.30;;;;;;5038790;28;19922;-77
2022/12/30 10:56:01;;;;;;;;;;;8.60;90.30;;;;;;5053244;28;19927;-75
2022/12/30 10:58:42;;;;;;;;;;;8.70;90.30;;;;;;5042098;28;19917;-77
2022/12/30 11:01:14;;;;;;;;;;;8.80;90.20;;;;;;5038654;28;20257;-77
2022/12/30 11:03:44;;;;;;;;;;;9.00;90.20;;;;;;5042432;28;20309;-77
2022/12/30 11:06:25;;;;;;;;;;;9.00;90.10;;;;;;5041049;28;19975;-77
2022/12/30 11:08:51;;;;;;;;;;;9.20;90.20;;;;;;5052558;28;20358;-75
2022/12/30 11:11:17;;;;;;;;;;;9.30;90.10;;;;;;5039081;28;19920;-77
2022/12/30 11:16:37;;;;;;;;;;;9.40;90.00;;;;;;5038213;28;19959;-76
2022/12/30 11:19:03;;;;;;;;;;;9.50;90.00;;;;;;5038571;28;20357;-77
2022/12/30 11:21:30;;;;;;;;;;;9.50;90.00;;;;;;5042214;28;19927;-77
2022/12/30 11:23:58;;;;;;;;;;;9.60;90.00;;;;;;5052716;28;19977;-76
2022/12/30 11:26:24;;;;;;;;;;;9.60;89.90;;;;;;5037276;28;19952;-77
2022/12/30 11:28:51;;;;;;;;;;;9.70;89.80;;;;;;5037055;28;19925;-76
2022/12/30 11:31:16;;;;;;;;;;;9.70;89.80;;;;;;5026276;28;20035;-76
2022/12/30 11:33:49;;;;;;;;;;;9.80;89.70;;;;;;5051873;28;19996;-77
2022/12/30 11:36:16;;;;;;;;;;;9.80;89.70;;;;;;5038461;28;21090;-77
2022/12/30 11:38:43;;;;;;;;;;;9.80;89.60;;;;;;5036468;28;20040;-76
2022/12/30 11:41:27;;;;;;;;;;;9.80;89.60;;;;;;5042421;28;19920;-77
2022/12/30 11:43:58;;;;;;;;;;;9.90;89.50;;;;;;5056037;28;19925;-76
2022/12/30 11:46:31;;;;;;;;;;;9.90;89.50;;;;;;5035993;28;20367;-77
2022/12/30 11:48:57;;;;;;;;;;;10.00;89.70;;;;;;5037801;28;19959;-76
2022/12/30 11:51:23;;;;;;;;;;;10.10;89.70;;;;;;5053774;28;19963;-77
2022/12/30 11:53:49;;;;;;;;;;;10.20;89.60;;;;;;5051979;28;19960;-76
2022/12/30 11:56:19;;;;;;;;;;;10.40;89.60;;;;;;5039874;28;19956;-77
2022/12/30 11:58:45;;;;;;;;;;;10.40;89.40;;;;;;5035445;28;20491;-76
2022/12/30 12:01:10;;;;;;;;;;;10.50;89.10;;;;;;5037875;28;19960;-77
2022/12/30 12:04:02;;;;;;;;;;;10.60;89.10;;;;;;5035837;28;20333;-76
2022/12/30 12:06:27;;;;;;;;;;;10.60;89.10;;;;;;5035302;28;19921;-77
2022/12/30 12:09:03;;;;;;;;;;;10.70;89.10;;;;;;5033401;28;19927;-76
2022/12/30 12:11:29;;;;;;;;;;;10.80;89.10;;;;;;5036154;28;19921;-77
2022/12/30 12:14:04;;;;;;;;;;;10.90;89.10;;;;;;5036040;28;20351;-77
2022/12/30 12:16:32;;;;;;;;;;;11.00;88.90;;;;;;5052189;28;19928;-76
2022/12/30 12:19:21;;;;;;;;;;;11.10;88.80;;;;;;5035684;28;19925;-77
2022/12/30 12:21:46;;;;;;;;;;;11.20;88.70;;;;;;5027874;28;19928;-76
2022/12/30 12:24:24;;;;;;;;;;;11.20;88.50;;;;;;5020497;28;20046;-77
2022/12/30 12:26:57;;;;;;;;;;;11.20;88.40;;;;;;5036447;28;20359;-77
2022/12/30 12:29:23;;;;;;;;;;;11.20;88.50;;;;;;5038267;28;19993;-76
2022/12/30 12:32:01;;;;;;;;;;;11.20;88.30;;;;;;5038163;28;19917;-77
2022/12/30 12:34:45;;;;;;;;;;;11.10;88.20;;;;;;5022473;28;19944;-77
2022/12/30 12:37:18;;;;;;;;;;;11.00;88.10;;;;;;5036545;28;19921;-77
2022/12/30 12:40:01;;;;;;;;;;;10.90;88.20;;;;;;5034468;28;19929;-76
2022/12/30 12:42:39;;;;;;;;;;;10.90;88.40;;;;;;5034277;28;19928;-77
2022/12/30 12:45:11;;;;;;;;;;;10.90;88.40;;;;;;5021257;28;19921;-77
2022/12/30 12:47:55;;;;;;;;;;;10.90;88.40;;;;;;5038225;28;19925;-76
2022/12/30 12:50:53;;;;;;;;;;;10.90;88.50;;;;;;5037072;28;20529;-77
2022/12/30 12:53:18;;;;;;;;;;;10.90;88.50;;;;;;5019633;28;20012;-76
2022/12/30 12:56:04;;;;;;;;;;;10.90;88.50;;;;;;5034352;28;20482;-76
2022/12/30 12:58:35;;;;;;;;;;;10.80;88.40;;;;;;5015491;28;19921;-77
2022/12/30 13:01:03;;;;;;;;;;;10.90;88.50;;;;;;5037050;28;19924;-76
2022/12/30 13:03:29;;;;;;;;;;;10.90;88.40;;;;;;5038221;28;20007;-76
2022/12/30 13:05:57;;;;;;;;;;;10.90;88.50;;;;;;5035582;28;20388;-77
2022/12/30 13:08:41;;;;;;;;;;;10.90;88.40;;;;;;5033163;28;20553;-76
2022/12/30 13:11:09;;;;;;;;;;;10.90;88.40;;;;;;5051812;28;19921;-76
2022/12/30 13:13:35;;;;;;;;;;;10.90;88.40;;;;;;5018886;28;19917;-76
2022/12/30 13:16:03;;;;;;;;;;;10.90;88.30;;;;;;5021092;28;19970;-76
2022/12/30 13:18:28;;;;;;;;;;;10.80;88.80;;;;;;5033341;28;19967;-76
2022/12/30 13:20:55;;;;;;;;;;;10.80;88.20;;;;;;5034431;28;19953;-77
2022/12/30 13:23:23;;;;;;;;;;;10.70;88.10;;;;;;5033553;28;20315;-77
2022/12/30 13:25:50;;;;;;;;;;;10.70;88.10;;;;;;5036196;28;19962;-76
2022/12/30 13:28:18;;;;;;;;;;;10.60;88.20;;;;;;5035355;28;19917;-77
2022/12/30 13:30:53;;;;;;;;;;;10.60;88.30;;;;;;5033433;28;19956;-74
2022/12/30 13:33:21;;;;;;;;;;;10.60;88.30;;;;;;5021037;28;19924;-76
2022/12/30 13:35:53;;;;;;;;;;;10.50;88.10;;;;;;5019810;28;19931;-76
2022/12/30 13:38:21;;;;;;;;;;;10.50;88.30;;;;;;5030740;28;19921;-76
2022/12/30 13:41:00;;;;;;;;;;;10.50;88.40;;;;;;5033947;28;20552;-76
2022/12/30 13:43:28;;;;;;;;;;;10.50;88.40;;;;;;5034459;28;20342;-77
2022/12/30 13:45:57;;;;;;;;;;;10.50;88.40;;;;;;5034524;28;19978;-76
2022/12/30 13:48:23;;;;;;;;;;;10.40;88.30;;;;;;5040497;28;20415;-76
2022/12/30 13:51:04;;;;;;;;;;;10.40;88.20;;;;;;5018822;28;19955;-77
2022/12/30 13:53:30;;;;;;;;;;;10.40;88.30;;;;;;5035663;28;20298;-77
2022/12/30 13:55:55;;;;;;;;;;;10.40;88.40;;;;;;5038196;28;19924;-76
2022/12/30 13:58:23;;;;;;;;;;;10.30;88.30;;;;;;5034587;28;20391;-76
2022/12/30 14:01:09;;;;;;;;;;;10.40;88.30;;;;;;5035170;28;19952;-77
2022/12/30 14:03:36;;;;;;;;;;;10.30;88.30;;;;;;5051554;28;19921;-76
2022/12/30 14:06:02;;;;;;;;;;;10.30;88.30;;;;;;5034629;28;20003;-76
2022/12/30 14:08:28;;;;;;;;;;;10.20;88.20;;;;;;5031378;28;20570;-75
2022/12/30 14:10:59;;;;;;;;;;;10.20;88.40;;;;;;5049802;28;20154;-76
2022/12/30 14:13:27;;;;;;;;;;;10.20;88.50;;;;;;5035473;28;20062;-76
2022/12/30 14:15:54;;;;;;;;;;;10.10;88.40;;;;;;5035980;28;19921;-74
2022/12/30 14:18:31;;;;;;;;;;;10.10;88.40;;;;;;5053256;28;19979;-76
2022/12/30 14:21:16;;;;;;;;;;;10.00;88.40;;;;;;5036709;28;20195;-74
2022/12/30 14:23:45;;;;;;;;;;;10.10;88.50;;;;;;5038066;28;19928;-76
2022/12/30 14:26:28;;;;;;;;;;;10.00;88.40;;;;;;5023492;28;20010;-76
2022/12/30 14:28:54;;;;;;;;;;;10.00;88.20;;;;;;5022274;28;19963;-76
2022/12/30 14:31:22;;;;;;;;;;;10.00;88.30;;;;;;5042026;28;19956;-76
2022/12/30 14:33:49;;;;;;;;;;;9.90;88.30;;;;;;5052855;28;19920;-75
2022/12/30 14:36:14;;;;;;;;;;;9.90;88.50;;;;;;5040816;28;19927;-77
2022/12/30 14:38:43;;;;;;;;;;;9.90;88.60;;;;;;5039886;28;20019;-77
2022/12/30 14:41:09;;;;;;;;;;;9.80;88.50;;;;;;5039569;28;19917;-77
2022/12/30 14:43:51;;;;;;;;;;;9.80;88.50;;;;;;5038169;28;19921;-76
2022/12/30 14:46:40;;;;;;;;;;;9.80;88.50;;;;;;5053284;28;20075;-76
2022/12/30 14:49:12;;;;;;;;;;;9.80;88.50;;;;;;5041725;28;19917;-76
2022/12/30 14:51:39;;;;;;;;;;;9.70;88.50;;;;;;5048884;28;19968;-76
2022/12/30 14:54:04;;;;;;;;;;;9.70;88.60;;;;;;5045464;28;19917;-77
2022/12/30 14:56:30;;;;;;;;;;;9.70;88.70;;;;;;5042020;28;19928;-75
2022/12/30 14:58:55;;;;;;;;;;;9.60;88.60;;;;;;5038795;28;19985;-74
2022/12/30 15:01:21;;;;;;;;;;;9.60;88.60;;;;;;5040614;28;19920;-76
2022/12/30 15:03:46;;;;;;;;;;;9.60;88.60;;;;;;5036783;28;19924;-77
2022/12/30 15:06:12;;;;;;;;;;;9.60;88.70;;;;;;5032594;28;19982;-77
2022/12/30 15:08:39;;;;;;;;;;;9.60;88.70;;;;;;5056392;28;19928;-77
2022/12/30 15:11:08;;;;;;;;;;;9.50;88.60;;;;;;5041230;28;20003;-77
2022/12/30 15:13:41;;;;;;;;;;;9.50;88.70;;;;;;5013055;28;20544;-76
2022/12/30 15:16:07;;;;;;;;;;;9.50;88.60;;;;;;5040158;28;19924;-77
2022/12/30 15:18:36;;;;;;;;;;;9.50;88.80;;;;;;5052708;28;19929;-77
2022/12/30 15:21:17;;;;;;;;;;;9.50;88.80;;;;;;5035914;28;20391;-75
2022/12/30 15:23:42;;;;;;;;;;;9.50;88.80;;;;;;5036658;28;19978;-73
2022/12/30 15:26:10;;;;;;;;;;;9.40;88.80;;;;;;5039710;28;19924;-75
2022/12/30 15:28:38;;;;;;;;;;;9.40;88.80;;;;;;5054443;28;20288;-76
2022/12/30 15:31:04;;;;;;;;;;;9.40;88.80;;;;;;5037745;28;19925;-76